createdAt,value
2023-03-13T00:01:30.206Z,11.20
2023-03-13T00:03:57.347Z,11.20
2023-03-13T00:06:26.645Z,11.20
2023-03-13T00:08:54.739Z,11.20
2023-03-13T00:11:21.771Z,11.20
2023-03-13T00:13:48.950Z,11.20
2023-03-13T00:16:17.067Z,11.20
2023-03-13T00:18:49.894Z,11.20
2023-03-13T00:21:18.479Z,11.20
2023-03-13T00:23:46.633Z,11.30
2023-03-13T00:26:15.324Z,11.10
2023-03-13T00:28:45.032Z,11.00
2023-03-13T00:31:14.557Z,11.10
2023-03-13T00:33:42.925Z,11.30
2023-03-13T00:36:13.128Z,11.30
2023-03-13T00:38:40.716Z,11.30
2023-03-13T00:41:09.724Z,11.20
2023-03-13T00:43:36.689Z,11.20
2023-03-13T00:46:03.875Z,11.10
2023-03-13T00:48:31.241Z,11.20
2023-03-13T00:50:58.278Z,11.20
2023-03-13T00:53:26.898Z,11.20
2023-03-13T00:55:55.837Z,11.30
2023-03-13T00:58:24.183Z,11.30
2023-03-13T01:00:51.809Z,11.30
2023-03-13T01:03:19.376Z,11.40
2023-03-13T01:05:54.753Z,11.50
2023-03-13T01:08:21.773Z,11.60
2023-03-13T01:10:50.460Z,11.40
2023-03-13T01:13:17.700Z,11.50
2023-03-13T01:15:44.775Z,11.50
2023-03-13T01:18:11.746Z,11.60
2023-03-13T01:20:39.073Z,11.70
2023-03-13T01:23:06.113Z,11.80
2023-03-13T01:25:36.316Z,11.70
2023-03-13T01:28:04.955Z,11.60
2023-03-13T01:30:32.318Z,11.70
2023-03-13T01:32:59.402Z,11.80
2023-03-13T01:35:26.475Z,11.80
2023-03-13T01:37:53.762Z,11.90
2023-03-13T01:40:20.824Z,12.00
2023-03-13T01:42:52.417Z,11.90
2023-03-13T01:45:53.696Z,11.90
2023-03-13T01:48:22.100Z,11.90
2023-03-13T01:50:49.368Z,11.90
2023-03-13T01:53:16.526Z,11.90
2023-03-13T01:55:43.559Z,12.10
2023-03-13T01:58:10.805Z,12.00
2023-03-13T02:00:38.717Z,12.00
2023-03-13T02:03:11.112Z,12.00
2023-03-13T02:05:41.393Z,12.00
2023-03-13T02:08:12.972Z,12.00
2023-03-13T02:10:48.737Z,12.10
2023-03-13T02:13:17.469Z,12.10
2023-03-13T02:15:45.412Z,12.10
2023-03-13T02:18:15.226Z,12.30
2023-03-13T02:20:42.648Z,12.40
2023-03-13T02:23:20.345Z,12.40
2023-03-13T02:25:50.990Z,12.50
2023-03-13T02:28:20.894Z,12.40
2023-03-13T02:30:50.440Z,12.50
2023-03-13T02:33:19.434Z,12.50
2023-03-13T02:35:47.943Z,12.60
2023-03-13T02:38:19.277Z,12.70
2023-03-13T02:40:50.091Z,12.70
2023-03-13T02:43:20.999Z,12.70
2023-03-13T02:46:05.506Z,12.70
2023-03-13T02:48:35.146Z,12.80
2023-03-13T02:51:05.223Z,12.80
2023-03-13T02:53:34.559Z,12.80
2023-03-13T02:56:04.462Z,12.80
2023-03-13T02:58:49.164Z,12.90
2023-03-13T03:01:17.154Z,12.90
2023-03-13T03:03:44.389Z,12.90
2023-03-13T03:06:11.591Z,13.00
2023-03-13T03:08:38.637Z,13.00
2023-03-13T03:11:07.758Z,13.00
2023-03-13T03:13:34.900Z,13.00
2023-03-13T03:16:06.930Z,12.90
2023-03-13T03:18:34.762Z,13.00
2023-03-13T03:21:01.866Z,13.00
2023-03-13T03:23:28.976Z,13.00
2023-03-13T03:25:55.976Z,13.10
2023-03-13T03:28:24.414Z,13.10
2023-03-13T03:30:51.538Z,13.10
2023-03-13T03:33:18.775Z,13.10
2023-03-13T03:35:45.863Z,13.20
2023-03-13T03:38:12.947Z,13.10
2023-03-13T03:40:40.036Z,13.20
2023-03-13T03:43:07.131Z,13.20
2023-03-13T03:45:35.628Z,13.20
2023-03-13T03:48:02.662Z,13.20
2023-03-13T03:50:29.676Z,13.30
2023-03-13T03:52:56.651Z,13.20
2023-03-13T03:55:23.764Z,13.20
2023-03-13T03:57:50.837Z,13.20
2023-03-13T04:00:18.208Z,13.20
2023-03-13T04:02:46.612Z,13.20
2023-03-13T04:05:13.776Z,13.20
2023-03-13T04:07:40.824Z,13.30
2023-03-13T04:10:08.964Z,13.30
2023-03-13T04:12:35.908Z,13.20
2023-03-13T04:15:03.140Z,13.30
2023-03-13T04:17:30.207Z,13.40
2023-03-13T04:19:58.559Z,13.40
2023-03-13T04:22:26.029Z,13.40
2023-03-13T04:24:53.320Z,13.40
2023-03-13T04:27:20.357Z,13.40
2023-03-13T04:29:47.407Z,13.30
2023-03-13T04:32:14.512Z,13.30
2023-03-13T04:34:41.632Z,13.30
2023-03-13T04:37:10.189Z,13.40
2023-03-13T04:39:37.414Z,13.40
2023-03-13T04:42:04.764Z,13.40
2023-03-13T04:44:31.736Z,13.40
2023-03-13T04:46:59.409Z,13.40
2023-03-13T04:49:26.419Z,13.40
2023-03-13T04:51:53.535Z,13.40
2023-03-13T04:54:22.584Z,13.40
2023-03-13T04:56:49.812Z,13.50
2023-03-13T04:59:16.788Z,13.50
2023-03-13T05:01:44.062Z,13.50
2023-03-13T05:04:11.463Z,13.40
2023-03-13T05:06:38.729Z,13.50
2023-03-13T05:09:12.583Z,13.50
2023-03-13T05:11:40.911Z,13.50
2023-03-13T05:14:08.013Z,13.50
2023-03-13T05:16:35.076Z,13.50
2023-03-13T05:19:02.061Z,13.50
2023-03-13T05:21:28.998Z,13.50
2023-03-13T05:23:56.078Z,13.50
2023-03-13T05:26:23.238Z,13.50
2023-03-13T05:28:51.712Z,13.50
2023-03-13T05:31:18.890Z,13.50
2023-03-13T05:33:46.085Z,13.60
2023-03-13T05:36:13.250Z,13.60
2023-03-13T05:38:40.314Z,13.50
2023-03-13T05:41:07.365Z,13.50
2023-03-13T05:43:34.351Z,13.60
2023-03-13T05:46:02.701Z,13.60
2023-03-13T05:48:29.784Z,13.60
2023-03-13T05:50:56.774Z,13.60
2023-03-13T05:53:23.840Z,13.60
2023-03-13T05:55:50.876Z,13.60
2023-03-13T05:58:17.874Z,13.60
2023-03-13T06:00:44.877Z,13.70
2023-03-13T06:03:17.275Z,13.80
2023-03-13T06:05:44.254Z,13.70
2023-03-13T06:08:11.221Z,13.60
2023-03-13T06:10:38.203Z,13.70
2023-03-13T06:13:18.635Z,13.60
2023-03-13T06:15:52.011Z,13.60
2023-03-13T06:18:20.492Z,13.60
2023-03-13T06:20:48.694Z,13.70
2023-03-13T06:23:16.304Z,13.70
2023-03-13T06:25:47.770Z,13.70
2023-03-13T06:28:14.769Z,13.60
2023-03-13T06:30:41.886Z,13.70
2023-03-13T06:33:09.038Z,13.60
2023-03-13T06:35:53.388Z,13.70
2023-03-13T06:38:23.200Z,13.70
2023-03-13T06:40:50.249Z,13.70
2023-03-13T06:43:17.220Z,13.80
2023-03-13T06:45:44.188Z,13.70
2023-03-13T06:48:11.199Z,13.80
2023-03-13T06:50:40.243Z,13.70
2023-03-13T06:53:07.569Z,13.70
2023-03-13T06:55:34.561Z,13.80
2023-03-13T06:58:01.500Z,13.90
2023-03-13T07:00:28.747Z,13.80
2023-03-13T07:02:55.809Z,13.90
2023-03-13T07:05:22.745Z,13.90
2023-03-13T07:07:51.228Z,14.00
2023-03-13T07:10:18.400Z,14.00
2023-03-13T07:12:45.353Z,14.00
2023-03-13T07:15:12.588Z,14.00
2023-03-13T07:17:39.803Z,14.00
2023-03-13T07:20:10.226Z,13.90
2023-03-13T07:22:37.527Z,14.00
2023-03-13T07:25:07.150Z,14.00
2023-03-13T07:27:34.110Z,14.00
2023-03-13T07:30:01.390Z,14.10
2023-03-13T07:32:34.076Z,14.00
2023-03-13T07:35:01.128Z,14.10
2023-03-13T07:37:28.257Z,14.00
2023-03-13T07:39:55.238Z,14.00
2023-03-13T07:42:23.634Z,13.90
2023-03-13T07:44:50.544Z,13.90
2023-03-13T07:47:17.634Z,14.00
2023-03-13T07:49:45.591Z,14.00
2023-03-13T07:52:13.024Z,13.90
2023-03-13T07:54:40.008Z,13.80
2023-03-13T07:57:07.735Z,13.90
2023-03-13T07:59:36.200Z,14.00
2023-03-13T08:02:03.634Z,14.10
2023-03-13T08:04:30.725Z,14.10
2023-03-13T08:06:57.689Z,14.10
2023-03-13T08:09:24.789Z,14.10
2023-03-13T08:11:52.212Z,14.00
2023-03-13T08:14:19.604Z,13.90
2023-03-13T08:16:48.083Z,14.00
2023-03-13T08:19:15.123Z,14.00
2023-03-13T08:21:42.139Z,14.00
2023-03-13T08:24:11.036Z,14.00
2023-03-13T08:26:41.929Z,14.00
2023-03-13T08:29:10.444Z,14.10
2023-03-13T08:31:39.074Z,14.10
2023-03-13T08:34:07.685Z,14.20
2023-03-13T08:36:36.987Z,14.10
2023-03-13T08:39:10.266Z,14.10
2023-03-13T08:41:37.700Z,14.20
2023-03-13T08:44:05.486Z,14.20
2023-03-13T08:46:34.627Z,14.40
2023-03-13T08:49:02.088Z,14.50
2023-03-13T08:51:30.556Z,14.50
2023-03-13T08:53:57.772Z,14.60
2023-03-13T08:56:26.736Z,14.70
2023-03-13T08:58:55.924Z,14.60
2023-03-13T09:01:25.698Z,14.60
2023-03-13T09:03:53.718Z,14.60
2023-03-13T09:06:20.833Z,14.60
2023-03-13T09:08:50.031Z,14.70
2023-03-13T09:11:18.720Z,14.80
2023-03-13T09:13:47.785Z,15.00
2023-03-13T09:16:16.509Z,15.20
2023-03-13T09:18:44.275Z,15.20
2023-03-13T09:21:15.346Z,15.30
2023-03-13T09:23:42.641Z,15.40
2023-03-13T09:26:12.189Z,15.70
2023-03-13T09:28:39.193Z,15.80
2023-03-13T09:31:10.968Z,15.50
2023-03-13T09:33:38.502Z,15.40
2023-03-13T09:36:06.135Z,15.30
2023-03-13T09:38:33.629Z,15.10
2023-03-13T09:41:06.550Z,15.10
2023-03-13T09:43:44.072Z,15.10
2023-03-13T09:46:16.591Z,15.20
2023-03-13T09:48:48.102Z,15.30
2023-03-13T09:51:19.189Z,15.30
2023-03-13T09:53:51.341Z,15.40
2023-03-13T09:56:20.616Z,15.60
2023-03-13T09:58:54.583Z,15.80
2023-03-13T10:01:26.653Z,15.70
2023-03-13T10:04:06.764Z,15.80
2023-03-13T10:06:38.104Z,16.00
2023-03-13T10:09:13.141Z,16.10
2023-03-13T10:11:46.333Z,16.10
2023-03-13T10:14:20.999Z,16.10
2023-03-13T10:16:51.202Z,15.90
2023-03-13T10:19:22.198Z,16.00
2023-03-13T10:21:53.709Z,15.70
2023-03-13T10:24:34.273Z,15.50
2023-03-13T10:27:01.452Z,15.50
2023-03-13T10:29:31.044Z,15.40
2023-03-13T10:31:59.437Z,15.30
2023-03-13T10:34:28.110Z,15.40
2023-03-13T10:36:58.529Z,15.60
2023-03-13T10:39:27.709Z,15.90
2023-03-13T10:41:59.678Z,16.20
2023-03-13T10:44:33.285Z,16.00
2023-03-13T10:47:02.144Z,16.00
2023-03-13T10:49:30.658Z,16.20
2023-03-13T10:52:02.013Z,16.50
2023-03-13T10:54:33.499Z,16.50
2023-03-13T10:57:26.622Z,16.60
2023-03-13T10:59:55.337Z,16.40
2023-03-13T11:02:27.012Z,16.50
2023-03-13T11:04:54.572Z,16.30
2023-03-13T11:07:26.280Z,16.30
2023-03-13T11:09:59.497Z,16.20
2023-03-13T11:12:27.344Z,16.30
2023-03-13T11:15:00.735Z,16.60
2023-03-13T11:17:34.163Z,16.70
2023-03-13T11:20:22.314Z,16.90
2023-03-13T11:22:59.387Z,17.00
2023-03-13T11:25:33.513Z,16.70
2023-03-13T11:28:30.428Z,16.40
2023-03-13T11:31:07.519Z,16.40
2023-03-13T11:33:44.682Z,16.40
2023-03-13T11:36:18.823Z,16.40
2023-03-13T11:38:50.454Z,16.20
2023-03-13T11:41:32.829Z,16.20
2023-03-13T11:44:21.383Z,16.20
2023-03-13T11:47:00.926Z,16.30
2023-03-13T11:50:01.172Z,16.40
2023-03-13T11:52:43.053Z,16.40
2023-03-13T11:55:28.171Z,16.50
2023-03-13T11:58:06.857Z,16.60
2023-03-13T12:00:36.972Z,16.60
2023-03-13T12:03:15.758Z,16.60
2023-03-13T12:05:47.256Z,16.70
2023-03-13T12:08:19.806Z,16.70
2023-03-13T12:10:51.248Z,16.70
2023-03-13T12:13:23.117Z,16.80
2023-03-13T12:15:54.594Z,17.00
2023-03-13T12:18:30.137Z,17.30
2023-03-13T12:21:01.869Z,17.30
2023-03-13T12:23:40.345Z,17.20
2023-03-13T12:26:13.260Z,17.00
2023-03-13T12:28:45.683Z,17.30
2023-03-13T12:31:21.929Z,17.80
2023-03-13T12:33:57.666Z,17.90
2023-03-13T12:36:29.696Z,17.70
2023-03-13T12:39:05.212Z,17.50
2023-03-13T12:41:36.015Z,17.40
2023-03-13T12:44:09.152Z,17.00
2023-03-13T12:46:41.665Z,17.20
2023-03-13T12:49:43.274Z,16.90
2023-03-13T12:52:36.784Z,16.90
2023-03-13T12:55:23.701Z,16.90
2023-03-13T12:58:13.975Z,17.00
2023-03-13T13:00:43.831Z,17.30
2023-03-13T13:03:24.925Z,17.20
2023-03-13T13:06:05.825Z,17.00
2023-03-13T13:08:37.127Z,16.80
2023-03-13T13:11:35.496Z,16.70
2023-03-13T13:14:05.762Z,16.90
2023-03-13T13:16:34.068Z,16.90
2023-03-13T13:19:45.421Z,17.10
2023-03-13T13:22:51.194Z,17.10
2023-03-13T13:25:35.743Z,17.00
2023-03-13T13:28:24.847Z,17.10
2023-03-13T13:30:55.792Z,17.20
2023-03-13T13:33:40.008Z,17.00
2023-03-13T13:36:29.854Z,16.90
2023-03-13T13:38:58.744Z,17.00
2023-03-13T13:41:36.597Z,16.90
2023-03-13T13:44:26.776Z,16.80
2023-03-13T13:46:55.442Z,16.90
2023-03-13T13:49:26.130Z,17.10
2023-03-13T13:52:32.405Z,17.20
2023-03-13T13:55:00.961Z,17.60
2023-03-13T13:57:32.077Z,17.60
2023-03-13T14:00:03.910Z,17.90
2023-03-13T14:02:34.167Z,18.00
2023-03-13T14:05:07.269Z,18.20
2023-03-13T14:07:51.483Z,18.10
2023-03-13T14:10:34.208Z,17.90
2023-03-13T14:13:02.667Z,17.60
2023-03-13T14:15:30.870Z,17.30
2023-03-13T14:18:00.349Z,17.40
2023-03-13T14:20:30.681Z,17.60
2023-03-13T14:23:01.472Z,17.70
2023-03-13T14:25:41.800Z,17.60
2023-03-13T14:28:17.308Z,17.60
2023-03-13T14:30:44.904Z,17.70
2023-03-13T14:33:12.162Z,17.50
2023-03-13T14:35:40.308Z,17.40
2023-03-13T14:38:07.618Z,17.30
2023-03-13T14:40:38.507Z,17.50
2023-03-13T14:43:20.635Z,17.70
2023-03-13T14:45:48.821Z,17.40
2023-03-13T14:48:21.459Z,17.30
2023-03-13T14:50:50.287Z,17.40
2023-03-13T14:53:19.698Z,17.40
2023-03-13T14:55:49.069Z,17.50
2023-03-13T14:58:28.104Z,17.50
2023-03-13T15:00:56.104Z,17.50
2023-03-13T15:03:28.771Z,17.30
2023-03-13T15:06:16.827Z,17.40
2023-03-13T15:08:45.072Z,17.60
2023-03-13T15:11:28.582Z,17.80
2023-03-13T15:13:56.783Z,17.80
2023-03-13T15:16:25.350Z,17.60
2023-03-13T15:18:53.829Z,17.60
2023-03-13T15:21:26.619Z,17.70
2023-03-13T15:23:56.021Z,17.70
2023-03-13T15:26:24.454Z,17.70
2023-03-13T15:28:51.595Z,17.50
2023-03-13T15:31:23.007Z,17.40
2023-03-13T15:33:54.668Z,17.40
2023-03-13T15:36:21.675Z,17.10
2023-03-13T15:38:48.576Z,16.90
2023-03-13T15:41:15.589Z,17.00
2023-03-13T15:43:44.043Z,17.00
2023-03-13T15:46:13.755Z,17.00
2023-03-13T15:48:41.496Z,17.20
2023-03-13T15:51:12.151Z,17.40
2023-03-13T15:53:39.219Z,17.30
2023-03-13T15:56:14.308Z,17.40
2023-03-13T15:58:41.346Z,17.20
2023-03-13T16:01:11.421Z,17.10
2023-03-13T16:03:38.568Z,16.80
2023-03-13T16:06:16.561Z,16.80
2023-03-13T16:08:44.090Z,16.70
2023-03-13T16:11:14.055Z,16.70
2023-03-13T16:13:41.297Z,16.60
2023-03-13T16:16:18.737Z,16.60
2023-03-13T16:18:46.006Z,16.60
2023-03-13T16:21:17.576Z,16.60
2023-03-13T16:23:44.598Z,16.60
2023-03-13T16:26:16.213Z,16.50
2023-03-13T16:28:43.593Z,16.40
2023-03-13T16:31:21.785Z,16.40
2023-03-13T16:33:53.863Z,16.40
2023-03-13T16:36:23.123Z,16.40
2023-03-13T16:38:50.911Z,16.40
2023-03-13T16:41:19.513Z,16.40
2023-03-13T16:43:46.846Z,16.40
2023-03-13T16:46:16.018Z,16.60
2023-03-13T16:48:45.417Z,16.40
2023-03-13T16:51:20.738Z,16.30
2023-03-13T16:53:49.307Z,16.20
2023-03-13T16:56:24.650Z,16.20
2023-03-13T16:58:51.599Z,16.40
2023-03-13T17:01:18.679Z,16.40
2023-03-13T17:03:47.356Z,16.40
2023-03-13T17:06:16.901Z,16.30
2023-03-13T17:08:44.211Z,16.20
2023-03-13T17:11:15.055Z,15.90
2023-03-13T17:13:47.524Z,15.90
2023-03-13T17:16:17.832Z,15.90
2023-03-13T17:18:48.074Z,15.80
2023-03-13T17:21:17.256Z,15.80
2023-03-13T17:23:45.053Z,15.80
2023-03-13T17:26:16.445Z,15.60
2023-03-13T17:28:43.609Z,15.80
2023-03-13T17:31:11.467Z,15.80
2023-03-13T17:33:38.609Z,15.80
2023-03-13T17:36:18.138Z,15.70
2023-03-13T17:38:46.500Z,15.70
2023-03-13T17:41:15.387Z,15.60
2023-03-13T17:43:43.162Z,15.70
2023-03-13T17:46:19.410Z,15.60
2023-03-13T17:48:47.572Z,15.50
2023-03-13T17:51:21.068Z,15.50
2023-03-13T17:53:48.510Z,15.40
2023-03-13T17:56:18.121Z,15.40
2023-03-13T17:58:45.717Z,15.40
2023-03-13T18:01:13.751Z,15.40
2023-03-13T18:03:41.392Z,15.50
2023-03-13T18:06:18.798Z,15.40
2023-03-13T18:08:47.314Z,15.40
2023-03-13T18:11:14.637Z,15.30
2023-03-13T18:13:41.820Z,15.10
2023-03-13T18:16:19.985Z,15.10
2023-03-13T18:18:47.093Z,15.10
2023-03-13T18:21:14.069Z,15.00
2023-03-13T18:23:41.148Z,14.90
2023-03-13T18:26:24.331Z,14.80
2023-03-13T18:28:51.942Z,14.80
2023-03-13T18:31:19.173Z,14.70
2023-03-13T18:33:47.782Z,14.50
2023-03-13T18:36:17.209Z,14.50
2023-03-13T18:38:45.069Z,14.40
2023-03-13T18:41:12.379Z,14.30
2023-03-13T18:43:40.906Z,14.30
2023-03-13T18:46:13.577Z,14.20
2023-03-13T18:48:40.806Z,14.20
2023-03-13T18:51:09.119Z,14.10
2023-03-13T18:53:36.250Z,14.10
2023-03-13T18:56:13.697Z,14.10
2023-03-13T18:58:42.325Z,14.00
2023-03-13T19:01:13.010Z,14.00
2023-03-13T19:03:40.459Z,13.90
2023-03-13T19:06:23.781Z,13.90
2023-03-13T19:08:52.882Z,13.90
2023-03-13T19:11:21.880Z,13.90
2023-03-13T19:13:50.515Z,13.80
2023-03-13T19:16:20.097Z,13.70
2023-03-13T19:18:48.101Z,13.80
2023-03-13T19:21:22.885Z,13.70
2023-03-13T19:23:50.860Z,13.50
2023-03-13T19:26:22.930Z,13.50
2023-03-13T19:28:51.772Z,13.50
2023-03-13T19:31:18.862Z,13.40
2023-03-13T19:33:45.931Z,13.40
2023-03-13T19:36:13.930Z,13.50
2023-03-13T19:38:41.820Z,13.40
2023-03-13T19:41:09.560Z,13.40
2023-03-13T19:43:36.735Z,13.40
2023-03-13T19:46:22.659Z,13.40
2023-03-13T19:48:52.088Z,13.30
2023-03-13T19:51:19.145Z,13.40
2023-03-13T19:53:46.453Z,13.30
2023-03-13T19:56:19.837Z,13.30
2023-03-13T19:58:48.044Z,13.20
2023-03-13T20:01:17.923Z,13.20
2023-03-13T20:03:46.114Z,13.20
2023-03-13T20:06:18.554Z,13.20
2023-03-13T20:08:46.433Z,13.20
2023-03-13T20:11:14.352Z,13.30
2023-03-13T20:13:42.265Z,13.10
2023-03-13T20:16:10.038Z,13.00
2023-03-13T20:18:38.579Z,13.10
2023-03-13T20:21:06.110Z,13.00
2023-03-13T20:23:33.266Z,13.00
2023-03-13T20:26:02.763Z,13.00
2023-03-13T20:28:31.284Z,13.00
2023-03-13T20:30:58.320Z,13.00
2023-03-13T20:33:28.318Z,13.00
2023-03-13T20:35:59.801Z,12.90
2023-03-13T20:38:27.063Z,13.00
2023-03-13T20:40:55.614Z,13.10
2023-03-13T20:43:23.427Z,12.90
2023-03-13T20:45:50.419Z,13.00
2023-03-13T20:48:17.935Z,12.80
2023-03-13T20:50:45.057Z,12.90
2023-03-13T20:53:13.569Z,12.90
2023-03-13T20:55:40.562Z,12.80
2023-03-13T20:58:08.008Z,12.80
2023-03-13T21:00:35.110Z,12.90
2023-03-13T21:03:02.260Z,12.80
2023-03-13T21:05:29.368Z,12.80
2023-03-13T21:07:56.497Z,12.90
2023-03-13T21:10:25.209Z,12.80
2023-03-13T21:12:52.221Z,12.80
2023-03-13T21:15:19.388Z,12.80
2023-03-13T21:17:46.400Z,12.70
2023-03-13T21:20:13.994Z,12.90
2023-03-13T21:22:42.488Z,13.00
2023-03-13T21:25:11.307Z,13.00
2023-03-13T21:27:39.801Z,13.00
2023-03-13T21:30:08.509Z,13.00
2023-03-13T21:32:36.873Z,13.10
2023-03-13T21:35:04.461Z,13.10
2023-03-13T21:37:32.270Z,13.20
2023-03-13T21:39:59.241Z,13.30
2023-03-13T21:42:26.842Z,13.30
2023-03-13T21:44:55.237Z,13.30
2023-03-13T21:47:22.336Z,13.20
2023-03-13T21:49:49.425Z,13.10
2023-03-13T21:52:16.374Z,13.10
2023-03-13T21:54:43.579Z,13.20
2023-03-13T21:57:10.623Z,13.20
2023-03-13T21:59:37.682Z,13.20
2023-03-13T22:02:06.089Z,13.00
2023-03-13T22:04:33.145Z,12.70
2023-03-13T22:07:00.298Z,12.60
2023-03-13T22:09:27.277Z,12.30
2023-03-13T22:11:54.283Z,12.30
2023-03-13T22:14:21.339Z,12.20
2023-03-13T22:16:48.414Z,12.20
2023-03-13T22:19:16.874Z,12.20
2023-03-13T22:21:43.986Z,12.20
2023-03-13T22:24:11.280Z,12.20
2023-03-13T22:26:38.647Z,12.30
2023-03-13T22:29:05.910Z,12.20
2023-03-13T22:31:32.967Z,12.20
2023-03-13T22:33:59.976Z,12.20
2023-03-13T22:36:28.467Z,12.20
2023-03-13T22:38:55.454Z,12.10
2023-03-13T22:41:22.498Z,12.00
2023-03-13T22:43:49.553Z,11.90
2023-03-13T22:46:16.942Z,12.00
2023-03-13T22:48:44.242Z,12.00
2023-03-13T22:51:12.834Z,12.00
2023-03-13T22:53:42.180Z,11.90
2023-03-13T22:56:11.225Z,11.80
2023-03-13T22:58:38.846Z,11.80
2023-03-13T23:01:06.789Z,11.70
2023-03-13T23:03:33.818Z,11.70
2023-03-13T23:06:04.034Z,11.60
2023-03-13T23:08:31.067Z,11.50
2023-03-13T23:11:01.776Z,11.50
2023-03-13T23:13:29.145Z,11.50
2023-03-13T23:15:56.453Z,11.60
2023-03-13T23:18:23.773Z,11.60
2023-03-13T23:20:50.910Z,11.50
2023-03-13T23:23:18.169Z,11.50
2023-03-13T23:25:45.339Z,11.40
2023-03-13T23:28:14.016Z,11.40
2023-03-13T23:30:41.029Z,11.40
2023-03-13T23:33:07.975Z,11.50
2023-03-13T23:35:36.880Z,11.50
2023-03-13T23:38:04.305Z,11.50
2023-03-13T23:40:31.375Z,11.50
2023-03-13T23:42:58.380Z,11.50
2023-03-13T23:45:26.778Z,11.40
2023-03-13T23:47:54.157Z,11.40
2023-03-13T23:50:22.129Z,11.40
2023-03-13T23:52:49.181Z,11.50
2023-03-13T23:55:16.365Z,11.50
2023-03-13T23:57:43.270Z,11.60
